METAR Data
IDs: Format: Raw Decoded Include TAF

Data at: 0945 UTC 26 Jan 2020

KC29 260935Z AUTO 29008KT 7SM OVC008 00/M01 A2989 RMK AO1 T00031010
KC29 260915Z AUTO 29009KT 5SM OVC008 01/M01 A2990 RMK AO1 T00051010
KC29 260855Z AUTO 28007KT 5SM OVC008 01/M01 A2990 RMK AO1 T00051010
KC29 260835Z AUTO 29008KT 5SM OVC008 01/M01 A2990 RMK AO1 T00051010
KC29 260815Z AUTO 28008KT 7SM OVC008 01/M01 A2990 RMK AO1 T00061010
KC29 260755Z AUTO 28009KT 10SM OVC010 01/M01 A2990 RMK AO1 T00051010
KC29 260735Z AUTO 28010KT 10SM OVC010 01/M01 A2990 RMK AO1 T00061010
KC29 260715Z AUTO 28010KT 10SM OVC010 01/M01 A2990 RMK AO1 T00061010
KC29 260655Z AUTO 28009KT 10SM BKN010 OVC016 01/M01 A2989 RMK AO1 T00071010
KC29 260635Z AUTO 28011KT 10SM BKN010 OVC016 01/M01 A2989 RMK AO1 T00071010
KC29 260615Z AUTO 28008KT 10SM OVC012 01/M01 A2989 RMK AO1 T00071010
KC29 260555Z AUTO 28009KT 10SM OVC012 01/M01 A2989 RMK AO1 T00071007 10013 20007 400200007
KC29 260535Z AUTO 28007KT 10SM BKN014 OVC046 01/M01 A2989 RMK AO1 T00081007
KC29 260515Z AUTO 28007KT 10SM BKN014 BKN038 OVC047 01/M01 A2989 RMK AO1 T00101007
KC29 260455Z AUTO 28009KT 10SM BKN014 OVC038 01/M01 A2989 RMK AO1 T00101006
KC29 260435Z AUTO 28010KT 10SM OVC014 01/00 A2989 RMK AO1 T00101005
KC29 260415Z AUTO 28010KT 10SM BKN012 BKN034 OVC048 01/00 A2988 RMK AO1 T00101005
KC29 260355Z AUTO 28009KT 10SM SCT012 OVC048 01/00 A2988 RMK AO1 T00101004
KC29 260335Z AUTO 27007KT 10SM SCT012 BKN027 OVC050 01/00 A2988 RMK AO1 T00101003
KC29 260315Z AUTO 28007KT 10SM OVC025 01/00 A2988 RMK AO1 T00111002
KC29 260255Z AUTO 30007KT 10SM SCT012 SCT017 OVC023 01/00 A2987 RMK AO1 T00121001
KC29 260235Z AUTO 29007KT 10SM OVC012 01/00 A2987 RMK AO1 T00121001
KC29 260215Z AUTO 29007KT 10SM BKN008 BKN012 OVC045 01/00 A2987 RMK AO1 T00110000
KC29 260155Z AUTO 29009KT 7SM BKN010 OVC020 01/00 A2987 RMK AO1 T00111001
KC29 260135Z AUTO 29011KT 7SM OVC010 01/00 A2988 RMK AO1 T00121001
KC29 260115Z AUTO 28009KT 7SM OVC010 01/00 A2988 RMK AO1 T00111001
KC29 260055Z AUTO 29009KT 7SM OVC012 01/00 A2987 RMK AO1 T00121002
KC29 260035Z AUTO 29009KT 10SM OVC012 01/00 A2987 RMK AO1 T00131002
KC29 260015Z AUTO 29008KT 10SM OVC010 01/00 A2987 RMK AO1 T00131002
KC29 252355Z AUTO 29009KT 10SM OVC008 01/00 A2986 RMK AO1 T00121001 10020 20012
KC29 252335Z AUTO 28010KT 10SM OVC008 01/00 A2985 RMK AO1 T00131001
KC29 252315Z AUTO 29009KT 10SM BKN010 OVC015 01/00 A2985 RMK AO1 T00131002
KC29 252255Z AUTO 29009KT 10SM OVC010 01/00 A2984 RMK AO1 T00131002
KC29 252235Z AUTO 29010KT 10SM OVC010 02/00 A2984 RMK AO1 T00151001
KC29 252215Z AUTO 29008KT 10SM OVC010 02/00 A2983 RMK AO1 T00150000
KC29 252155Z AUTO 29007KT 7SM OVC010 02/00 A2983 RMK AO1 T00150000
KC29 252135Z AUTO 30008KT 10SM BKN010 OVC019 02/00 A2983 RMK AO1 T00151001
KC29 252115Z AUTO 29009KT 10SM SCT010 BKN019 OVC024 02/00 A2983 RMK AO1 T00161001
KC29 252055Z AUTO 29010KT 10SM SCT010 BKN020 OVC027 02/00 A2982 RMK AO1 T00171001
KC29 252035Z AUTO 29009KT 10SM SCT008 OVC022 02/00 A2982 RMK AO1 T00161001
KC29 252015Z AUTO 29008KT 10SM BKN008 BKN013 OVC024 02/00 A2982 RMK AO1 T00171001
KC29 251955Z AUTO 29009KT 10SM OVC008 02/00 A2982 RMK AO1 T00170000
KC29 251935Z AUTO 29008KT 3SM BKN008 OVC012 02/00 A2982 RMK AO1 T00160000
KC29 251915Z AUTO 29008KT 10SM OVC008 02/00 A2982 RMK AO1 T00170000
KC29 251855Z AUTO 30008KT 7SM OVC008 02/00 A2981 RMK AO1 T00170000
KC29 251835Z AUTO 31008KT 7SM OVC008 02/00 A2981 RMK AO1 T00170000
KC29 251815Z AUTO 29008KT 10SM OVC008 02/00 A2981 RMK AO1 T00170000
KC29 251755Z AUTO 30007KT 7SM OVC008 02/00 A2982 RMK AO1 T00170000 10020 20011
KC29 251735Z AUTO 29007KT 10SM OVC010 02/00 A2982 RMK AO1 T00200000
KC29 251715Z AUTO 29009KT 10SM BKN008 OVC014 02/00 A2982 RMK AO1 T00170000
KC29 251655Z AUTO 29008KT 5SM BKN008 OVC014 02/00 A2983 RMK AO1 T00200001
KC29 251635Z AUTO 29007KT 7SM OVC008 02/00 A2982 RMK AO1 T00180000
KC29 251615Z AUTO 29007KT 7SM OVC008 02/00 A2982 RMK AO1 T00170001
KC29 251555Z AUTO 29008KT 3SM OVC008 02/00 A2982 RMK AO1 T00150000
KC29 251535Z AUTO 30007KT 2 1/2SM OVC006 02/00 A2981 RMK AO1 T00150000
KC29 251515Z AUTO 30007KT 2 1/2SM OVC006 01/00 A2981 RMK AO1 T00130001
KC29 251455Z AUTO 29006KT 3SM OVC006 01/00 A2981 RMK AO1 T00130002
KC29 251435Z AUTO 29006KT 2 1/2SM OVC006 01/00 A2981 RMK AO1 T00120002
KC29 251415Z AUTO 29005KT 1 1/2SM OVC006 01/00 A2981 RMK AO1 T00120002
KC29 251355Z AUTO 30005KT 1 1/4SM OVC006 01/00 A2981 RMK AO1 T00110002
KC29 251335Z AUTO 30005KT 1 1/4SM OVC006 01/00 A2980 RMK AO1 T00120002
KC29 251315Z AUTO 30007KT 1 3/4SM OVC006 01/00 A2980 RMK AO1 T00120002
KC29 251255Z AUTO 30006KT 1 1/2SM OVC006 01/00 A2979 RMK AO1 T00120002
KC29 251235Z AUTO 31006KT 3SM OVC006 01/00 A2979 RMK AO1 T00120002
KC29 251215Z AUTO 30006KT 2 1/2SM OVC006 01/00 A2979 RMK AO1 T00110002
KC29 251155Z AUTO 31006KT 1 3/4SM OVC006 01/00 A2978 RMK AO1 70004 T00110001 10012 20010
KC29 251135Z AUTO 30005KT 1 1/4SM OVC006 01/00 A2978 RMK AO1 T00110001
KC29 251115Z AUTO 30007KT 2 1/2SM OVC008 01/00 A2978 RMK AO1 T00120001
KC29 251055Z AUTO 31007KT 2 1/2SM OVC008 01/00 A2978 RMK AO1 T00110001
KC29 251035Z AUTO 30007KT 1 3/4SM OVC008 01/00 A2977 RMK AO1 T00110001
KC29 251015Z AUTO 30006KT 2 1/2SM OVC006 01/00 A2977 RMK AO1 T00110001
KC29 250955Z AUTO 31006KT 1 3/4SM OVC006 01/00 A2977 RMK AO1 T00110001
KC29 250935Z AUTO 31006KT 1 3/4SM OVC008 01/00 A2977 RMK AO1 T00110001
KC29 250915Z AUTO 31006KT 2SM OVC008 01/00 A2978 RMK AO1 T00110001
KC29 250855Z AUTO 31006KT 2 1/2SM OVC008 01/00 A2978 RMK AO1 T00110001
KC29 250835Z AUTO 31006KT 2 1/2SM SCT005 BKN010 OVC014 01/00 A2979 RMK AO1 T00110002
KC29 250815Z AUTO 31005KT 2SM OVC008 01/00 A2979 RMK AO1 T00100001
KC29 250755Z AUTO 32006KT 1 1/4SM BKN006 OVC021 01/00 A2978 RMK AO1 T00110002
KC29 250735Z AUTO 31006KT 1 3/4SM OVC008 01/00 A2978 RMK AO1 T00110002
KC29 250715Z AUTO 31005KT 1 1/2SM OVC006 01/00 A2978 RMK AO1 T00100001
KC29 250655Z AUTO 32006KT 3SM OVC008 01/00 A2979 RMK AO1 T00110001
KC29 250635Z AUTO 32006KT 10SM OVC008 01/00 A2979 RMK AO1 T00110002
KC29 250615Z AUTO 31006KT 4SM OVC008 01/00 A2979 RMK AO1 T00100002
KC29 250555Z AUTO 32005KT 3/4SM OVC006 01/00 A2979 RMK AO1 60004 T00100002 10015 20010 400200003
KC29 250535Z AUTO 32006KT 1 1/4SM OVC008 01/00 A2979 RMK AO1 T00110003
KC29 250515Z AUTO 33006KT 7SM OVC008 01/00 A2980 RMK AO1 T00110003
KC29 250455Z AUTO 32006KT 1SM OVC006 01/00 A2980 RMK AO1 P0001 T00100002
KC29 250435Z AUTO 33006KT 1SM OVC006 01/00 A2980 RMK AO1 T00100002
KC29 250415Z AUTO 34007KT 1 1/2SM OVC006 01/00 A2980 RMK AO1 T00110003
KC29 250355Z AUTO 34005KT 1 3/4SM OVC004 01/00 A2980 RMK AO1 P0001 T00110003
KC29 250335Z AUTO 34006KT 1 1/2SM OVC004 01/00 A2981 RMK AO1 T00110003
KC29 250315Z AUTO 34006KT 1 3/4SM BKN004 OVC020 01/00 A2981 RMK AO1 T00110003
KC29 250255Z AUTO 35005KT 2SM BKN004 BKN013 OVC020 01/00 A2981 RMK AO1 P0001 60002 T00110003
KC29 250235Z AUTO 35006KT 1 1/2SM OVC004 01/00 A2981 RMK AO1 T00110003
KC29 250215Z AUTO 35005KT 2SM OVC004 01/00 A2982 RMK AO1 T00110003
KC29 250155Z AUTO 35005KT 2SM OVC004 01/00 A2982 RMK AO1 P0001 T00110004
KC29 250135Z AUTO 36005KT 1 3/4SM OVC004 01/00 A2982 RMK AO1 T00120004
KC29 250115Z AUTO 36006KT 1 3/4SM OVC004 01/01 A2982 RMK AO1 T00130005
KC29 250055Z AUTO 36006KT 1 3/4SM OVC004 01/01 A2982 RMK AO1 T00140006
KC29 250035Z AUTO 36006KT 1 3/4SM OVC004 02/01 A2983 RMK AO1 T00150006
KC29 250015Z AUTO 35007KT 1 1/2SM OVC004 02/01 A2983 RMK AO1 T00150006
KC29 242355Z AUTO 36007KT 1 1/2SM OVC004 02/01 A2983 RMK AO1 T00150006 10018 20015
KC29 242335Z AUTO 01008KT 1 3/4SM OVC004 02/01 A2982 RMK AO1 T00150006
KC29 242315Z AUTO 36006KT 2 1/2SM OVC004 02/01 A2983 RMK AO1 T00160007
KC29 242255Z AUTO 01007KT 4SM OVC004 02/01 A2982 RMK AO1 T00160006
KC29 242235Z AUTO 02006KT 5SM OVC004 02/01 A2982 RMK AO1 T00160006
KC29 242215Z AUTO 02007KT 5SM OVC004 02/01 A2982 RMK AO1 T00170006
KC29 242155Z AUTO 01007KT 5SM OVC004 02/01 A2982 RMK AO1 T00170006